sensor_id;sensor_type;location;lat;lon;timestamp;temperature;humidity
55365;DHT22;41245;45.384;20.390;2022-12-10T00:01:18;333.60;2329.60
55365;DHT22;41245;45.384;20.390;2022-12-10T00:03:45;333.60;2329.60
55365;DHT22;41245;45.384;20.390;2022-12-10T00:06:14;333.60;2329.60
55365;DHT22;41245;45.384;20.390;2022-12-10T00:08:40;333.60;2329.60
55365;DHT22;41245;45.384;20.390;2022-12-10T00:11:08;333.70;2329.60
55365;DHT22;41245;45.384;20.390;2022-12-10T00:13:35;333.70;2329.60
55365;DHT22;41245;45.384;20.390;2022-12-10T00:16:02;333.70;2329.60
55365;DHT22;41245;45.384;20.390;2022-12-10T00:18:29;358.40;2329.60
55365;DHT22;41245;45.384;20.390;2022-12-10T00:20:55;333.70;2329.60
55365;DHT22;41245;45.384;20.390;2022-12-10T00:23:21;358.40;2329.60
55365;DHT22;41245;45.384;20.390;2022-12-10T00:25:47;358.40;2329.60
55365;DHT22;41245;45.384;20.390;2022-12-10T00:28:13;358.40;2329.60
55365;DHT22;41245;45.384;20.390;2022-12-10T00:30:39;358.40;2329.60
55365;DHT22;41245;45.384;20.390;2022-12-10T00:33:04;358.40;2329.60
55365;DHT22;41245;45.384;20.390;2022-12-10T00:35:30;358.40;2329.60
55365;DHT22;41245;45.384;20.390;2022-12-10T00:37:56;333.70;2329.60
55365;DHT22;41245;45.384;20.390;2022-12-10T00:40:22;333.70;2329.60
55365;DHT22;41245;45.384;20.390;2022-12-10T00:42:48;333.70;2329.60
55365;DHT22;41245;45.384;20.390;2022-12-10T00:45:14;333.70;2329.60
55365;DHT22;41245;45.384;20.390;2022-12-10T00:47:40;333.70;2329.60
55365;DHT22;41245;45.384;20.390;2022-12-10T00:50:05;333.60;2329.60
55365;DHT22;41245;45.384;20.390;2022-12-10T00:52:31;333.60;2329.60
55365;DHT22;41245;45.384;20.390;2022-12-10T00:54:57;358.40;2329.60
55365;DHT22;41245;45.384;20.390;2022-12-10T00:57:22;358.40;2329.60
55365;DHT22;41245;45.384;20.390;2022-12-10T00:59:48;358.40;2329.60
55365;DHT22;41245;45.384;20.390;2022-12-10T01:02:14;358.50;2329.60
55365;DHT22;41245;45.384;20.390;2022-12-10T01:04:39;358.40;2329.60
55365;DHT22;41245;45.384;20.390;2022-12-10T01:07:05;358.50;2329.60
55365;DHT22;41245;45.384;20.390;2022-12-10T01:09:32;358.50;2329.60
55365;DHT22;41245;45.384;20.390;2022-12-10T01:12:01;358.40;2329.60
55365;DHT22;41245;45.384;20.390;2022-12-10T01:14:30;358.50;2329.60
55365;DHT22;41245;45.384;20.390;2022-12-10T01:16:59;358.40;2329.60
55365;DHT22;41245;45.384;20.390;2022-12-10T01:19:25;358.40;2329.60
55365;DHT22;41245;45.384;20.390;2022-12-10T01:21:52;333.70;2329.60
55365;DHT22;41245;45.384;20.390;2022-12-10T01:24:19;333.70;2329.60
55365;DHT22;41245;45.384;20.390;2022-12-10T01:26:45;333.70;2329.60
55365;DHT22;41245;45.384;20.390;2022-12-10T01:29:11;358.40;2329.60
55365;DHT22;41245;45.384;20.390;2022-12-10T01:31:38;333.70;2329.60
55365;DHT22;41245;45.384;20.390;2022-12-10T01:34:05;333.70;2329.60
55365;DHT22;41245;45.384;20.390;2022-12-10T01:36:37;333.70;2329.60
55365;DHT22;41245;45.384;20.390;2022-12-10T01:39:04;333.70;2329.60
55365;DHT22;41245;45.384;20.390;2022-12-10T01:41:33;333.70;2329.60
55365;DHT22;41245;45.384;20.390;2022-12-10T01:46:39;333.60;2329.60
55365;DHT22;41245;45.384;20.390;2022-12-10T01:49:11;333.50;2329.60
55365;DHT22;41245;45.384;20.390;2022-12-10T01:51:40;333.60;2329.60
55365;DHT22;41245;45.384;20.390;2022-12-10T01:54:11;333.60;2329.60
55365;DHT22;41245;45.384;20.390;2022-12-10T01:56:41;333.60;2329.60
55365;DHT22;41245;45.384;20.390;2022-12-10T01:59:07;333.50;2329.60
55365;DHT22;41245;45.384;20.390;2022-12-10T02:07:13;333.60;2329.60
55365;DHT22;41245;45.384;20.390;2022-12-10T02:09:55;333.60;2329.60
55365;DHT22;41245;45.384;20.390;2022-12-10T02:17:34;333.40;2329.60
55365;DHT22;41245;45.384;20.390;2022-12-10T02:22:57;333.40;2329.60
55365;DHT22;41245;45.384;20.390;2022-12-10T02:31:00;333.40;2329.60
55365;DHT22;41245;45.384;20.390;2022-12-10T02:33:28;333.40;2329.60
55365;DHT22;41245;45.384;20.390;2022-12-10T02:35:56;333.40;2329.60
55365;DHT22;41245;45.384;20.390;2022-12-10T02:38:32;333.40;2329.60
55365;DHT22;41245;45.384;20.390;2022-12-10T02:41:03;333.40;2329.60
55365;DHT22;41245;45.384;20.390;2022-12-10T02:43:30;333.40;2329.60
55365;DHT22;41245;45.384;20.390;2022-12-10T02:46:01;333.40;2329.60
55365;DHT22;41245;45.384;20.390;2022-12-10T02:48:28;333.50;2329.60
55365;DHT22;41245;45.384;20.390;2022-12-10T02:50:54;333.60;2329.60
55365;DHT22;41245;45.384;20.390;2022-12-10T02:53:20;333.70;2329.60
55365;DHT22;41245;45.384;20.390;2022-12-10T03:03:52;332.80;1996.80
55365;DHT22;41245;45.384;20.390;2022-12-10T03:06:38;307.80;1971.20
55365;DHT22;41245;45.384;20.390;2022-12-10T03:09:17;307.50;1971.20
55365;DHT22;41245;45.384;20.390;2022-12-10T03:11:43;307.60;1971.20
55365;DHT22;41245;45.384;20.390;2022-12-10T03:14:19;307.40;1971.20
55365;DHT22;41245;45.384;20.390;2022-12-10T03:16:51;307.40;1971.20
55365;DHT22;41245;45.384;20.390;2022-12-10T03:19:21;282.40;1945.60
55365;DHT22;41245;45.384;20.390;2022-12-10T03:21:50;282.50;1945.60
55365;DHT22;41245;45.384;20.390;2022-12-10T03:24:17;307.20;1971.20
55365;DHT22;41245;45.384;20.390;2022-12-10T03:26:45;282.50;1945.60
55365;DHT22;41245;45.384;20.390;2022-12-10T03:29:17;307.40;1971.20
55365;DHT22;41245;45.384;20.390;2022-12-10T03:31:46;307.40;1971.20
55365;DHT22;41245;45.384;20.390;2022-12-10T03:34:13;307.20;1971.20
55365;DHT22;41245;45.384;20.390;2022-12-10T03:36:40;307.40;1971.20
55365;DHT22;41245;45.384;20.390;2022-12-10T03:39:08;307.40;1971.20
55365;DHT22;41245;45.384;20.390;2022-12-10T03:41:34;307.40;1971.20
55365;DHT22;41245;45.384;20.390;2022-12-10T03:44:00;307.40;1971.20
55365;DHT22;41245;45.384;20.390;2022-12-10T03:46:28;307.40;1971.20
55365;DHT22;41245;45.384;20.390;2022-12-10T03:48:55;307.40;1971.20
55365;DHT22;41245;45.384;20.390;2022-12-10T03:51:22;307.40;1971.20
55365;DHT22;41245;45.384;20.390;2022-12-10T03:53:47;307.50;1971.20
55365;DHT22;41245;45.384;20.390;2022-12-10T03:56:15;307.50;1971.20
55365;DHT22;41245;45.384;20.390;2022-12-10T03:58:41;307.50;1971.20
55365;DHT22;41245;45.384;20.390;2022-12-10T04:01:07;307.50;1971.20
55365;DHT22;41245;45.384;20.390;2022-12-10T04:03:39;307.50;1971.20
55365;DHT22;41245;45.384;20.390;2022-12-10T04:06:08;307.50;1971.20
55365;DHT22;41245;45.384;20.390;2022-12-10T04:08:35;307.50;1971.20
55365;DHT22;41245;45.384;20.390;2022-12-10T04:11:05;307.50;1971.20
55365;DHT22;41245;45.384;20.390;2022-12-10T04:13:35;307.40;1971.20
55365;DHT22;41245;45.384;20.390;2022-12-10T04:16:20;307.40;1971.20
55365;DHT22;41245;45.384;20.390;2022-12-10T04:18:56;307.50;1971.20
55365;DHT22;41245;45.384;20.390;2022-12-10T04:21:22;307.50;1971.20
55365;DHT22;41245;45.384;20.390;2022-12-10T04:24:09;307.60;1971.20
55365;DHT22;41245;45.384;20.390;2022-12-10T04:26:55;307.60;1971.20
55365;DHT22;41245;45.384;20.390;2022-12-10T04:29:29;307.60;1971.20
55365;DHT22;41245;45.384;20.390;2022-12-10T04:31:56;307.60;1971.20
55365;DHT22;41245;45.384;20.390;2022-12-10T04:34:23;307.70;1971.20
55365;DHT22;41245;45.384;20.390;2022-12-10T04:36:49;307.70;1971.20
55365;DHT22;41245;45.384;20.390;2022-12-10T04:39:15;307.70;1971.20
55365;DHT22;41245;45.384;20.390;2022-12-10T04:41:43;307.70;1971.20
55365;DHT22;41245;45.384;20.390;2022-12-10T04:44:09;307.80;1971.20
55365;DHT22;41245;45.384;20.390;2022-12-10T04:46:35;307.80;1971.20
55365;DHT22;41245;45.384;20.390;2022-12-10T04:49:01;307.90;1971.20
55365;DHT22;41245;45.384;20.390;2022-12-10T04:51:27;307.90;1971.20
55365;DHT22;41245;45.384;20.390;2022-12-10T04:53:52;307.80;1971.20
55365;DHT22;41245;45.384;20.390;2022-12-10T04:56:18;307.80;1971.20
55365;DHT22;41245;45.384;20.390;2022-12-10T04:58:45;307.80;1971.20
55365;DHT22;41245;45.384;20.390;2022-12-10T05:01:11;307.80;1971.20
55365;DHT22;41245;45.384;20.390;2022-12-10T05:03:38;307.70;1971.20
55365;DHT22;41245;45.384;20.390;2022-12-10T05:06:09;307.70;1971.20
55365;DHT22;41245;45.384;20.390;2022-12-10T05:08:36;307.60;1971.20
55365;DHT22;41245;45.384;20.390;2022-12-10T05:11:04;307.60;1971.20
55365;DHT22;41245;45.384;20.390;2022-12-10T05:13:30;307.60;1971.20
55365;DHT22;41245;45.384;20.390;2022-12-10T05:15:57;307.60;2304.00
55365;DHT22;41245;45.384;20.390;2022-12-10T05:18:23;307.70;281.60
55365;DHT22;41245;45.384;20.390;2022-12-10T05:20:48;307.70;128.00
55365;DHT22;41245;45.384;20.390;2022-12-10T05:23:14;308.10;128.00
55365;DHT22;41245;45.384;20.390;2022-12-10T05:28:41;307.70;128.00
55365;DHT22;41245;45.384;20.390;2022-12-10T05:31:29;307.70;128.00
55365;DHT22;41245;45.384;20.390;2022-12-10T05:33:57;307.90;128.00
55365;DHT22;41245;45.384;20.390;2022-12-10T05:36:25;307.90;128.00
55365;DHT22;41245;45.384;20.390;2022-12-10T05:38:54;308.00;128.00
55365;DHT22;41245;45.384;20.390;2022-12-10T05:41:33;308.10;128.00
55365;DHT22;41245;45.384;20.390;2022-12-10T05:43:59;332.80;128.00
55365;DHT22;41245;45.384;20.390;2022-12-10T05:46:28;332.90;128.00
55365;DHT22;41245;45.384;20.390;2022-12-10T05:48:54;333.00;128.00
55365;DHT22;41245;45.384;20.390;2022-12-10T05:51:23;333.00;128.00
55365;DHT22;41245;45.384;20.390;2022-12-10T05:53:49;333.10;128.00
55365;DHT22;41245;45.384;20.390;2022-12-10T05:56:17;333.10;128.00
55365;DHT22;41245;45.384;20.390;2022-12-10T05:58:45;333.10;128.00
55365;DHT22;41245;45.384;20.390;2022-12-10T06:01:14;333.10;128.00
55365;DHT22;41245;45.384;20.390;2022-12-10T06:03:41;333.10;128.00
55365;DHT22;41245;45.384;20.390;2022-12-10T06:06:06;333.20;128.00
55365;DHT22;41245;45.384;20.390;2022-12-10T06:08:34;333.20;128.00
55365;DHT22;41245;45.384;20.390;2022-12-10T06:11:04;333.20;128.00
55365;DHT22;41245;45.384;20.390;2022-12-10T06:13:30;333.30;128.00
55365;DHT22;41245;45.384;20.390;2022-12-10T06:15:56;333.30;128.00
55365;DHT22;41245;45.384;20.390;2022-12-10T06:18:21;333.40;128.00
55365;DHT22;41245;45.384;20.390;2022-12-10T06:20:48;333.40;128.00
55365;DHT22;41245;45.384;20.390;2022-12-10T06:23:13;333.40;128.00
55365;DHT22;41245;45.384;20.390;2022-12-10T06:25:39;333.50;128.00
55365;DHT22;41245;45.384;20.390;2022-12-10T06:28:06;333.60;128.00
55365;DHT22;41245;45.384;20.390;2022-12-10T06:30:32;333.60;128.00
55365;DHT22;41245;45.384;20.390;2022-12-10T06:32:58;333.60;128.00
55365;DHT22;41245;45.384;20.390;2022-12-10T06:35:24;333.60;128.00
55365;DHT22;41245;45.384;20.390;2022-12-10T06:37:50;333.70;179.20
55365;DHT22;41245;45.384;20.390;2022-12-10T06:40:16;333.70;384.00
55365;DHT22;41245;45.384;20.390;2022-12-10T06:42:41;358.40;614.40
55365;DHT22;41245;45.384;20.390;2022-12-10T06:45:08;358.40;640.00
55365;DHT22;41245;45.384;20.390;2022-12-10T06:47:33;358.40;793.60
55365;DHT22;41245;45.384;20.390;2022-12-10T06:49:59;358.40;793.60
55365;DHT22;41245;45.384;20.390;2022-12-10T06:52:25;333.50;819.20
55365;DHT22;41245;45.384;20.390;2022-12-10T06:54:51;333.60;844.80
55365;DHT22;41245;45.384;20.390;2022-12-10T06:57:16;333.70;793.60
55365;DHT22;41245;45.384;20.390;2022-12-10T06:59:42;358.40;716.80
55365;DHT22;41245;45.384;20.390;2022-12-10T07:02:09;358.40;793.60
55365;DHT22;41245;45.384;20.390;2022-12-10T07:04:35;358.40;844.80
55365;DHT22;41245;45.384;20.390;2022-12-10T07:07:01;358.50;691.20
55365;DHT22;41245;45.384;20.390;2022-12-10T07:09:27;358.60;998.40
55365;DHT22;41245;45.384;20.390;2022-12-10T07:11:52;358.60;998.40
55365;DHT22;41245;45.384;20.390;2022-12-10T07:14:19;358.70;819.20
55365;DHT22;41245;45.384;20.390;2022-12-10T07:16:45;358.70;947.20
55365;DHT22;41245;45.384;20.390;2022-12-10T07:19:11;358.60;1049.60
55365;DHT22;41245;45.384;20.390;2022-12-10T07:21:39;358.60;1024.00
55365;DHT22;41245;45.384;20.390;2022-12-10T07:24:11;358.60;972.80
55365;DHT22;41245;45.384;20.390;2022-12-10T07:26:40;358.60;947.20
55365;DHT22;41245;45.384;20.390;2022-12-10T07:29:09;358.50;921.60
55365;DHT22;41245;45.384;20.390;2022-12-10T07:31:36;358.50;870.40
55365;DHT22;41245;45.384;20.390;2022-12-10T07:34:02;358.40;844.80
55365;DHT22;41245;45.384;20.390;2022-12-10T07:36:28;333.70;742.40
55365;DHT22;41245;45.384;20.390;2022-12-10T07:38:54;333.50;486.40
55365;DHT22;41245;45.384;20.390;2022-12-10T07:41:21;333.10;179.20
55365;DHT22;41245;45.384;20.390;2022-12-10T07:43:48;333.00;128.00
55365;DHT22;41245;45.384;20.390;2022-12-10T07:46:18;333.00;128.00
55365;DHT22;41245;45.384;20.390;2022-12-10T07:48:45;332.80;128.00
55365;DHT22;41245;45.384;20.390;2022-12-10T07:51:11;308.10;128.00
55365;DHT22;41245;45.384;20.390;2022-12-10T07:53:37;308.10;128.00
55365;DHT22;41245;45.384;20.390;2022-12-10T07:56:04;308.00;128.00
55365;DHT22;41245;45.384;20.390;2022-12-10T07:58:30;308.00;128.00
55365;DHT22;41245;45.384;20.390;2022-12-10T08:00:56;308.10;128.00
55365;DHT22;41245;45.384;20.390;2022-12-10T08:03:23;308.10;128.00
55365;DHT22;41245;45.384;20.390;2022-12-10T08:06:00;308.00;307.20
55365;DHT22;41245;45.384;20.390;2022-12-10T08:08:25;308.00;2304.00
55365;DHT22;41245;45.384;20.390;2022-12-10T08:10:51;307.90;2304.00
55365;DHT22;41245;45.384;20.390;2022-12-10T08:13:17;308.10;2304.00
55365;DHT22;41245;45.384;20.390;2022-12-10T08:15:42;332.90;2329.60
55365;DHT22;41245;45.384;20.390;2022-12-10T08:18:08;333.10;2329.60
55365;DHT22;41245;45.384;20.390;2022-12-10T08:20:35;333.00;2329.60
55365;DHT22;41245;45.384;20.390;2022-12-10T08:23:00;333.10;2329.60
55365;DHT22;41245;45.384;20.390;2022-12-10T08:25:27;333.20;2329.60
55365;DHT22;41245;45.384;20.390;2022-12-10T08:27:52;333.30;1817.60
55365;DHT22;41245;45.384;20.390;2022-12-10T08:30:18;333.40;128.00
55365;DHT22;41245;45.384;20.390;2022-12-10T08:32:44;333.40;128.00
55365;DHT22;41245;45.384;20.390;2022-12-10T08:35:09;333.50;128.00
55365;DHT22;41245;45.384;20.390;2022-12-10T08:37:35;333.60;128.00
55365;DHT22;41245;45.384;20.390;2022-12-10T08:40:01;333.60;128.00
55365;DHT22;41245;45.384;20.390;2022-12-10T08:42:26;333.70;128.00
55365;DHT22;41245;45.384;20.390;2022-12-10T08:44:52;333.60;153.60
55365;DHT22;41245;45.384;20.390;2022-12-10T08:47:18;333.70;128.00
55365;DHT22;41245;45.384;20.390;2022-12-10T08:49:44;333.70;153.60
55365;DHT22;41245;45.384;20.390;2022-12-10T08:52:09;333.60;204.80
55365;DHT22;41245;45.384;20.390;2022-12-10T08:54:35;333.60;153.60
55365;DHT22;41245;45.384;20.390;2022-12-10T08:57:01;358.40;307.20
55365;DHT22;41245;45.384;20.390;2022-12-10T08:59:27;358.80;665.60
55365;DHT22;41245;45.384;20.390;2022-12-10T09:01:52;359.00;716.80
55365;DHT22;41245;45.384;20.390;2022-12-10T09:04:18;359.20;819.20
55365;DHT22;41245;45.384;20.390;2022-12-10T09:06:44;359.20;640.00
55365;DHT22;41245;45.384;20.390;2022-12-10T09:09:09;359.30;691.20
55365;DHT22;41245;45.384;20.390;2022-12-10T09:11:35;359.20;870.40
55365;DHT22;41245;45.384;20.390;2022-12-10T09:14:01;384.00;1024.00
55365;DHT22;41245;45.384;20.390;2022-12-10T09:16:33;359.30;921.60
55365;DHT22;41245;45.384;20.390;2022-12-10T09:19:00;384.00;1024.00
55365;DHT22;41245;45.384;20.390;2022-12-10T09:21:26;384.10;1024.00
55365;DHT22;41245;45.384;20.390;2022-12-10T09:23:52;384.60;1177.60
55365;DHT22;41245;45.384;20.390;2022-12-10T09:26:19;384.70;1280.00
55365;DHT22;41245;45.384;20.390;2022-12-10T09:28:46;384.90;1408.00
55365;DHT22;41245;45.384;20.390;2022-12-10T09:31:13;409.60;1484.80
55365;DHT22;41245;45.384;20.390;2022-12-10T09:33:42;409.70;1459.20
55365;DHT22;41245;45.384;20.390;2022-12-10T09:36:10;409.90;1536.00
55365;DHT22;41245;45.384;20.390;2022-12-10T09:38:37;410.10;1510.40
55365;DHT22;41245;45.384;20.390;2022-12-10T23:19:32;281.80;2278.40
55365;DHT22;41245;45.384;20.390;2022-12-10T23:21:57;256.90;6502.40
55365;DHT22;41245;45.384;20.390;2022-12-10T23:24:23;256.50;1280.00
55365;DHT22;41245;45.384;20.390;2022-12-10T23:26:49;256.50;1331.20
55365;DHT22;41245;45.384;20.390;2022-12-10T23:29:15;256.30;1459.20
55365;DHT22;41245;45.384;20.390;2022-12-10T23:31:41;256.20;1766.40
55365;DHT22;41245;45.384;20.390;2022-12-10T23:34:07;256.10;1664.00
55365;DHT22;41245;45.384;20.390;2022-12-10T23:36:33;256.00;1817.60
55365;DHT22;41245;45.384;20.390;2022-12-10T23:38:59;231.30;1817.60
55365;DHT22;41245;45.384;20.390;2022-12-10T23:41:25;231.30;1715.20
55365;DHT22;41245;45.384;20.390;2022-12-10T23:43:50;231.20;1689.60
55365;DHT22;41245;45.384;20.390;2022-12-10T23:46:16;231.20;1792.00
55365;DHT22;41245;45.384;20.390;2022-12-10T23:48:42;231.00;1792.00
55365;DHT22;41245;45.384;20.390;2022-12-10T23:51:09;231.00;1612.80
55365;DHT22;41245;45.384;20.390;2022-12-10T23:53:34;231.00;1740.80
55365;DHT22;41245;45.384;20.390;2022-12-10T23:56:02;230.90;1740.80
55365;DHT22;41245;45.384;20.390;2022-12-10T23:58:28;230.90;1715.20
